createdAt,value
2018-07-28T00:02:21.204Z,23.55
2018-07-28T00:04:49.433Z,23.62
2018-07-28T00:07:17.661Z,23.59
2018-07-28T00:09:45.901Z,23.54
2018-07-28T00:12:14.145Z,23.62
2018-07-28T00:14:42.378Z,23.38
2018-07-28T00:17:10.602Z,23.29
2018-07-28T00:19:38.814Z,23.28
2018-07-28T00:22:07.038Z,23.18
2018-07-28T00:24:35.253Z,23.11
2018-07-28T00:27:03.490Z,23.14
2018-07-28T00:29:31.706Z,23.12
2018-07-28T00:32:00.070Z,23.05
2018-07-28T00:34:28.287Z,23.03
2018-07-28T00:36:56.543Z,23.00
2018-07-28T00:39:24.767Z,23.10
2018-07-28T00:41:52.969Z,23.20
2018-07-28T00:44:21.171Z,22.98
2018-07-28T00:46:49.378Z,22.95
2018-07-28T00:49:17.569Z,22.86
2018-07-28T00:51:45.778Z,22.72
2018-07-28T00:54:14.012Z,22.56
2018-07-28T00:56:43.286Z,22.52
2018-07-28T00:59:11.492Z,22.45
2018-07-28T01:01:39.750Z,22.45
2018-07-28T01:04:07.967Z,22.39
2018-07-28T01:06:36.170Z,22.42
2018-07-28T01:09:07.038Z,22.41
2018-07-28T01:11:35.238Z,22.33
2018-07-28T01:14:03.593Z,22.42
2018-07-28T01:16:31.782Z,22.43
2018-07-28T01:18:59.977Z,22.54
2018-07-28T01:21:28.290Z,22.54
2018-07-28T01:23:56.543Z,22.51
2018-07-28T01:26:24.755Z,22.44
2018-07-28T01:28:58.260Z,22.42
2018-07-28T01:31:26.534Z,22.50
2018-07-28T01:33:54.736Z,22.53
2018-07-28T01:36:22.950Z,22.49
2018-07-28T01:38:51.181Z,22.53
2018-07-28T01:41:19.442Z,22.73
2018-07-28T01:43:47.666Z,22.74
2018-07-28T01:46:15.861Z,22.73
2018-07-28T01:48:44.350Z,22.70
2018-07-28T01:51:12.577Z,22.66
2018-07-28T01:53:40.839Z,22.62
2018-07-28T01:56:09.429Z,22.63
2018-07-28T01:58:37.635Z,22.51
2018-07-28T02:01:05.841Z,22.48
2018-07-28T02:03:34.039Z,22.40
2018-07-28T02:06:02.248Z,22.47
2018-07-28T02:08:30.454Z,22.53
2018-07-28T02:10:58.653Z,22.51
2018-07-28T02:13:26.870Z,22.57
2018-07-28T02:15:55.082Z,22.59
2018-07-28T02:18:23.282Z,22.54
2018-07-28T02:20:51.493Z,22.26
2018-07-28T02:23:19.677Z,22.21
2018-07-28T02:25:47.877Z,22.05
2018-07-28T02:28:16.086Z,21.82
2018-07-28T02:30:44.311Z,21.86
2018-07-28T02:33:12.527Z,21.72
2018-07-28T02:35:40.727Z,21.85
2018-07-28T02:38:08.926Z,21.78
2018-07-28T02:40:37.130Z,21.82
2018-07-28T02:43:05.396Z,21.83
2018-07-28T02:45:33.617Z,21.77
2018-07-28T02:48:01.839Z,21.72
2018-07-28T02:50:30.043Z,21.74
2018-07-28T02:52:58.342Z,21.73
2018-07-28T02:55:26.566Z,21.63
2018-07-28T02:57:54.796Z,21.58
2018-07-28T03:00:23.013Z,21.56
2018-07-28T03:02:51.195Z,21.51
2018-07-28T03:05:19.398Z,21.48
2018-07-28T03:07:47.670Z,21.49
2018-07-28T03:10:15.877Z,21.67
2018-07-28T03:12:44.110Z,21.57
2018-07-28T03:16:27.766Z,21.62
2018-07-28T03:18:55.986Z,21.55
2018-07-28T03:21:24.199Z,21.66
2018-07-28T03:23:52.399Z,21.67
2018-07-28T03:26:21.690Z,21.64
2018-07-28T03:28:49.889Z,21.47
2018-07-28T03:31:18.097Z,21.31
2018-07-28T03:33:46.306Z,21.25
2018-07-28T03:36:14.498Z,21.29
2018-07-28T03:38:42.723Z,21.42
2018-07-28T03:41:10.922Z,21.45
2018-07-28T03:43:39.618Z,21.73
2018-07-28T03:46:07.971Z,21.73
2018-07-28T03:48:36.157Z,21.54
2018-07-28T03:51:04.375Z,21.20
2018-07-28T03:53:32.574Z,21.03
2018-07-28T03:56:00.785Z,21.13
2018-07-28T03:58:29.011Z,21.09
2018-07-28T04:00:57.219Z,20.89
2018-07-28T04:03:25.446Z,20.88
2018-07-28T04:05:53.638Z,20.96
2018-07-28T04:08:21.849Z,20.95
2018-07-28T04:10:50.056Z,20.95
2018-07-28T04:13:18.262Z,21.13
2018-07-28T04:15:46.462Z,21.15
2018-07-28T04:18:14.654Z,21.18
2018-07-28T04:20:42.873Z,21.29
2018-07-28T04:23:11.100Z,21.42
2018-07-28T04:25:39.326Z,21.45
2018-07-28T04:28:07.542Z,21.40
2018-07-28T04:30:35.730Z,21.44
2018-07-28T04:33:03.943Z,21.56
2018-07-28T04:35:32.178Z,21.59
2018-07-28T04:38:00.406Z,21.59
2018-07-28T04:40:28.602Z,21.80
2018-07-28T04:42:56.798Z,21.76
2018-07-28T04:45:25.012Z,21.80
2018-07-28T04:47:53.205Z,21.79
2018-07-28T04:50:21.425Z,21.83
2018-07-28T04:52:49.665Z,21.95
2018-07-28T04:55:17.863Z,22.03
2018-07-28T04:57:46.361Z,22.39
2018-07-28T05:00:14.550Z,22.36
2018-07-28T05:02:42.786Z,22.45
2018-07-28T05:05:10.986Z,22.49
2018-07-28T05:07:39.308Z,22.65
2018-07-28T05:10:07.389Z,22.73
2018-07-28T05:12:35.607Z,22.81
2018-07-28T05:15:03.873Z,22.73
2018-07-28T05:17:32.065Z,22.74
2018-07-28T05:20:00.269Z,22.97
2018-07-28T05:22:28.469Z,22.99
2018-07-28T05:24:56.718Z,23.13
2018-07-28T05:27:24.930Z,23.23
2018-07-28T05:29:53.130Z,23.19
2018-07-28T05:32:21.349Z,23.26
2018-07-28T05:34:49.560Z,23.05
2018-07-28T05:37:17.758Z,23.16
2018-07-28T05:39:45.962Z,23.03
2018-07-28T05:42:14.193Z,23.01
2018-07-28T05:44:42.371Z,22.92
2018-07-28T05:47:10.582Z,22.77
2018-07-28T05:49:38.800Z,22.93
2018-07-28T05:52:07.309Z,23.12
2018-07-28T05:54:35.528Z,23.25
2018-07-28T05:57:03.770Z,23.27
2018-07-28T05:59:32.000Z,23.49
2018-07-28T06:02:00.219Z,23.57
2018-07-28T06:04:28.454Z,23.72
2018-07-28T06:06:56.658Z,23.86
2018-07-28T06:09:24.895Z,23.88
2018-07-28T06:11:53.099Z,24.08
2018-07-28T06:14:21.290Z,24.06
2018-07-28T06:16:49.498Z,24.30
2018-07-28T06:19:17.767Z,24.48
2018-07-28T06:21:45.977Z,24.52
2018-07-28T06:24:14.209Z,24.49
2018-07-28T06:26:42.562Z,24.66
2018-07-28T06:29:10.794Z,24.72
2018-07-28T06:31:39.092Z,24.90
2018-07-28T06:34:07.254Z,25.25
2018-07-28T06:36:35.554Z,25.33
2018-07-28T06:39:04.402Z,25.72
2018-07-28T06:41:32.626Z,25.80
2018-07-28T06:44:00.833Z,25.62
2018-07-28T06:46:29.063Z,25.86
2018-07-28T06:48:57.277Z,25.89
2018-07-28T06:51:25.577Z,26.03
2018-07-28T06:53:53.786Z,26.00
2018-07-28T06:56:22.008Z,25.97
2018-07-28T06:58:50.287Z,25.94
2018-07-28T07:01:18.710Z,25.92
2018-07-28T07:03:46.994Z,25.97
2018-07-28T07:06:15.193Z,25.88
2018-07-28T07:08:43.416Z,25.59
2018-07-28T07:11:11.623Z,25.54
2018-07-28T07:13:39.893Z,25.73
2018-07-28T07:16:08.097Z,25.88
2018-07-28T07:18:36.346Z,25.82
2018-07-28T07:21:04.559Z,25.95
2018-07-28T07:23:32.749Z,26.07
2018-07-28T07:26:00.974Z,25.86
2018-07-28T07:28:29.165Z,25.85
2018-07-28T07:30:57.388Z,25.78
2018-07-28T07:33:25.593Z,25.81
2018-07-28T07:35:54.174Z,25.85
2018-07-28T07:38:22.389Z,25.93
2018-07-28T07:40:50.586Z,25.96
2018-07-28T07:43:18.826Z,25.95
2018-07-28T07:45:47.070Z,26.32
2018-07-28T07:48:15.272Z,26.23
2018-07-28T07:50:43.502Z,26.40
2018-07-28T07:53:11.698Z,26.24
2018-07-28T07:55:39.898Z,26.31
2018-07-28T07:58:08.166Z,26.27
2018-07-28T08:00:36.382Z,26.05
2018-07-28T08:03:04.611Z,25.97
2018-07-28T08:05:32.818Z,25.85
2018-07-28T08:08:01.010Z,25.67
2018-07-28T08:10:29.239Z,25.53
2018-07-28T08:12:57.453Z,25.51
2018-07-28T08:15:25.675Z,25.48
2018-07-28T08:17:53.887Z,25.44
2018-07-28T08:20:22.106Z,25.35
2018-07-28T08:22:50.343Z,25.30
2018-07-28T08:25:18.559Z,25.41
2018-07-28T08:27:46.814Z,25.45
2018-07-28T08:30:15.090Z,25.56
2018-07-28T08:32:43.289Z,25.56
2018-07-28T08:35:11.511Z,25.66
2018-07-28T08:37:39.747Z,25.67
2018-07-28T08:40:08.065Z,25.65
2018-07-28T08:42:36.249Z,25.61
2018-07-28T08:45:04.871Z,25.67
2018-07-28T08:47:33.095Z,25.82
2018-07-28T08:50:01.294Z,25.94
2018-07-28T08:52:29.514Z,25.96
2018-07-28T08:54:57.722Z,25.88
2018-07-28T08:57:25.915Z,25.80
2018-07-28T08:59:54.177Z,25.80
2018-07-28T09:02:22.394Z,25.81
2018-07-28T09:04:50.618Z,25.90
2018-07-28T09:07:18.821Z,25.87
2018-07-28T09:09:47.349Z,25.95
2018-07-28T09:12:15.672Z,25.73
2018-07-28T09:14:43.890Z,25.80
2018-07-28T09:17:12.106Z,25.98
2018-07-28T09:19:40.328Z,26.14
2018-07-28T09:22:08.531Z,26.77
2018-07-28T09:24:36.760Z,26.83
2018-07-28T09:27:05.135Z,27.13
2018-07-28T09:29:33.370Z,27.19
2018-07-28T09:32:01.562Z,26.98
2018-07-28T09:34:29.822Z,27.17
2018-07-28T09:36:58.089Z,27.04
2018-07-28T09:39:26.273Z,27.36
2018-07-28T09:41:54.922Z,27.26
2018-07-28T09:44:23.124Z,27.00
2018-07-28T09:46:51.402Z,26.95
2018-07-28T09:49:19.636Z,26.83
2018-07-28T09:51:47.925Z,26.91
2018-07-28T09:54:16.142Z,26.71
2018-07-28T09:56:44.346Z,26.90
2018-07-28T09:59:12.594Z,26.80
2018-07-28T10:01:40.899Z,26.88
2018-07-28T10:04:09.098Z,27.10
2018-07-28T10:06:37.474Z,27.53
2018-07-28T10:09:09.038Z,27.81
2018-07-28T10:11:37.234Z,28.26
2018-07-28T10:14:05.482Z,28.05
2018-07-28T10:16:33.678Z,27.90
2018-07-28T10:19:01.895Z,27.79
2018-07-28T10:21:30.085Z,27.71
2018-07-28T10:23:58.312Z,28.00
2018-07-28T10:26:26.551Z,28.11
2018-07-28T10:28:54.741Z,28.37
2018-07-28T10:31:22.953Z,28.66
2018-07-28T10:33:51.218Z,28.48
2018-07-28T10:36:19.521Z,28.53
2018-07-28T10:38:47.647Z,28.99
2018-07-28T10:41:15.850Z,29.20
2018-07-28T10:43:44.059Z,29.05
2018-07-28T10:46:12.355Z,29.32
2018-07-28T10:48:40.590Z,29.13
2018-07-28T10:51:08.793Z,29.48
2018-07-28T10:53:36.982Z,29.42
2018-07-28T10:56:05.218Z,29.22
2018-07-28T10:58:33.422Z,29.35
2018-07-28T11:01:01.658Z,29.54
2018-07-28T11:03:29.855Z,29.52
2018-07-28T11:05:58.039Z,29.36
2018-07-28T11:08:26.258Z,29.25
2018-07-28T11:10:55.311Z,29.72
2018-07-28T11:13:23.554Z,30.27
2018-07-28T11:15:51.774Z,30.36
2018-07-28T11:18:19.966Z,29.92
2018-07-28T11:20:48.182Z,29.62
2018-07-28T11:23:27.766Z,29.88
2018-07-28T11:25:55.978Z,30.19
2018-07-28T11:28:24.266Z,30.34
2018-07-28T11:30:52.504Z,30.45
2018-07-28T11:33:32.006Z,30.51
2018-07-28T11:36:11.497Z,30.63
2018-07-28T11:38:50.969Z,30.57
2018-07-28T11:41:30.497Z,30.67
2018-07-28T11:44:10.078Z,30.67
2018-07-28T11:46:38.287Z,30.75
2018-07-28T11:49:06.544Z,30.28
2018-07-28T11:51:34.772Z,30.14
2018-07-28T11:54:03.008Z,30.22
2018-07-28T11:56:31.209Z,30.23
2018-07-28T11:58:59.775Z,30.61
2018-07-28T12:01:28.011Z,30.81
2018-07-28T12:03:56.273Z,30.74
2018-07-28T12:06:24.466Z,30.91
2018-07-28T12:08:52.670Z,30.76
2018-07-28T12:11:20.915Z,30.94
2018-07-28T12:13:49.252Z,31.02
2018-07-28T12:16:17.456Z,31.44
2018-07-28T12:18:45.762Z,31.40
2018-07-28T12:21:14.010Z,31.81
2018-07-28T12:23:42.207Z,31.88
2018-07-28T12:26:10.454Z,32.11
2018-07-28T12:28:38.702Z,31.53
2018-07-28T12:31:06.922Z,31.38
2018-07-28T12:33:35.125Z,31.09
2018-07-28T12:36:03.347Z,30.87
2018-07-28T12:38:31.569Z,30.61
2018-07-28T12:40:59.824Z,30.15
2018-07-28T12:43:28.059Z,29.97
2018-07-28T12:45:56.322Z,29.68
2018-07-28T12:48:24.550Z,29.51
2018-07-28T12:50:53.042Z,29.28
2018-07-28T12:53:21.234Z,27.75
2018-07-28T12:55:50.511Z,26.50
2018-07-28T12:58:18.705Z,25.68
2018-07-28T13:00:46.926Z,25.08
2018-07-28T13:03:15.198Z,24.71
2018-07-28T13:05:43.425Z,24.69
2018-07-28T13:08:11.647Z,24.75
2018-07-28T13:10:39.861Z,24.61
2018-07-28T13:13:08.230Z,24.65
2018-07-28T13:15:36.438Z,24.54
2018-07-28T13:18:04.670Z,24.65
2018-07-28T13:20:32.890Z,24.23
2018-07-28T13:23:01.134Z,23.90
2018-07-28T13:25:29.346Z,24.05
2018-07-28T13:27:57.557Z,24.09
2018-07-28T13:30:25.758Z,24.26
2018-07-28T13:32:53.978Z,24.62
2018-07-28T13:35:22.243Z,24.90
2018-07-28T13:37:50.670Z,25.15
2018-07-28T13:40:18.918Z,25.35
2018-07-28T13:42:47.222Z,25.04
2018-07-28T13:45:15.457Z,25.37
2018-07-28T13:47:43.706Z,25.88
2018-07-28T13:50:11.909Z,26.21
2018-07-28T13:52:40.122Z,26.46
2018-07-28T13:55:08.337Z,25.96
2018-07-28T13:57:36.573Z,25.75
2018-07-28T14:00:05.849Z,25.72
2018-07-28T14:02:34.072Z,25.84
2018-07-28T14:05:02.279Z,26.21
2018-07-28T14:07:30.650Z,25.69
2018-07-28T14:09:58.854Z,26.05
2018-07-28T14:12:27.066Z,25.78
2018-07-28T14:14:55.364Z,26.18
2018-07-28T14:17:23.539Z,26.23
2018-07-28T14:19:51.742Z,26.16
2018-07-28T14:22:19.967Z,26.48
2018-07-28T14:24:48.191Z,26.57
2018-07-28T14:27:16.414Z,26.38
2018-07-28T14:29:44.639Z,26.28
2018-07-28T14:32:12.858Z,26.77
2018-07-28T14:34:41.078Z,26.76
2018-07-28T14:37:09.278Z,26.79
2018-07-28T14:39:37.527Z,26.78
2018-07-28T14:42:05.752Z,26.99
2018-07-28T14:44:33.966Z,26.89
2018-07-28T14:47:02.184Z,27.00
2018-07-28T14:49:30.397Z,27.08
2018-07-28T14:51:58.622Z,27.22
2018-07-28T14:54:26.837Z,27.26
2018-07-28T14:56:55.047Z,27.52
2018-07-28T14:59:23.270Z,27.67
2018-07-28T15:01:51.469Z,28.12
2018-07-28T15:04:19.690Z,28.42
2018-07-28T15:06:47.901Z,28.47
2018-07-28T15:09:16.102Z,28.27
2018-07-28T15:11:44.306Z,28.28
2018-07-28T15:14:12.534Z,28.17
2018-07-28T15:16:40.778Z,28.18
2018-07-28T15:19:08.971Z,28.09
2018-07-28T15:21:37.212Z,28.59
2018-07-28T15:24:05.436Z,28.97
2018-07-28T15:26:33.642Z,29.00
2018-07-28T15:29:01.864Z,28.93
2018-07-28T15:31:30.066Z,28.57
2018-07-28T15:33:58.306Z,28.51
2018-07-28T15:36:26.510Z,28.18
2018-07-28T15:38:55.788Z,27.96
2018-07-28T15:41:24.001Z,28.09
2018-07-28T15:43:52.206Z,28.17
2018-07-28T15:46:21.311Z,27.90
2018-07-28T15:48:50.008Z,27.80
2018-07-28T15:51:18.202Z,27.88
2018-07-28T15:53:46.451Z,27.74
2018-07-28T15:56:14.735Z,27.67
2018-07-28T15:58:42.881Z,27.59
2018-07-28T16:01:11.105Z,27.63
2018-07-28T16:03:39.313Z,27.70
2018-07-28T16:06:07.566Z,27.56
2018-07-28T16:08:35.761Z,27.35
2018-07-28T16:11:03.986Z,27.34
2018-07-28T16:13:32.218Z,27.39
2018-07-28T16:16:00.426Z,27.14
2018-07-28T16:18:28.646Z,27.10
2018-07-28T16:20:56.858Z,26.90
2018-07-28T16:23:25.083Z,26.85
2018-07-28T16:25:53.298Z,26.78
2018-07-28T16:28:21.510Z,26.80
2018-07-28T16:30:49.730Z,26.73
2018-07-28T16:33:17.941Z,26.83
2018-07-28T16:35:46.174Z,26.84
2018-07-28T16:38:14.416Z,26.80
2018-07-28T16:40:42.700Z,26.65
2018-07-28T16:43:10.926Z,26.71
2018-07-28T16:45:39.129Z,26.59
2018-07-28T16:48:07.373Z,26.55
2018-07-28T16:50:35.618Z,26.50
2018-07-28T16:53:03.845Z,26.53
2018-07-28T16:55:32.068Z,26.53
2018-07-28T16:58:00.275Z,26.45
2018-07-28T17:00:28.514Z,26.59
2018-07-28T17:02:56.722Z,26.59
2018-07-28T17:05:25.067Z,26.57
2018-07-28T17:08:02.907Z,26.52
2018-07-28T17:10:31.122Z,26.43
2018-07-28T17:12:59.397Z,26.37
2018-07-28T17:15:27.609Z,26.31
2018-07-28T17:17:55.830Z,26.55
2018-07-28T17:20:24.059Z,26.40
2018-07-28T17:22:52.358Z,26.34
2018-07-28T17:25:20.587Z,26.35
2018-07-28T17:27:48.882Z,26.40
2018-07-28T17:30:17.172Z,26.46
2018-07-28T17:32:45.476Z,26.36
2018-07-28T17:35:13.778Z,26.17
2018-07-28T17:37:42.074Z,26.26
2018-07-28T17:40:10.281Z,26.05
2018-07-28T17:42:38.658Z,26.08
2018-07-28T17:45:07.370Z,26.10
2018-07-28T17:47:35.678Z,25.95
2018-07-28T17:50:04.973Z,25.85
2018-07-28T17:52:33.213Z,26.00
2018-07-28T17:55:01.670Z,25.96
2018-07-28T17:57:29.879Z,25.76
2018-07-28T17:59:58.240Z,25.64
2018-07-28T18:02:26.492Z,25.57
2018-07-28T18:04:54.843Z,25.54
2018-07-28T18:07:23.159Z,25.58
2018-07-28T18:09:51.598Z,25.54
2018-07-28T18:12:19.846Z,25.47
2018-07-28T18:14:48.151Z,25.48
2018-07-28T18:17:16.462Z,25.51
2018-07-28T18:19:44.888Z,25.46
2018-07-28T18:22:13.236Z,25.53
2018-07-28T18:24:41.478Z,25.57
2018-07-28T18:27:09.890Z,25.67
2018-07-28T18:29:38.208Z,25.75
2018-07-28T18:32:06.455Z,25.65
2018-07-28T18:34:34.731Z,25.59
2018-07-28T18:37:03.026Z,25.49
2018-07-28T18:39:31.361Z,25.40
2018-07-28T18:41:59.566Z,25.49
2018-07-28T18:44:27.781Z,25.46
2018-07-28T18:46:56.087Z,25.48
2018-07-28T18:49:24.362Z,25.43
2018-07-28T18:51:52.604Z,25.53
2018-07-28T18:54:20.836Z,25.38
2018-07-28T18:56:49.237Z,25.05
2018-07-28T18:59:17.459Z,25.11
2018-07-28T19:01:45.710Z,25.05
2018-07-28T19:04:14.016Z,24.97
2018-07-28T19:06:42.290Z,25.06
2018-07-28T19:10:16.506Z,25.05
2018-07-28T19:12:50.366Z,24.97
2018-07-28T19:15:18.642Z,24.98
2018-07-28T19:17:52.295Z,24.94
2018-07-28T19:20:20.545Z,24.85
2018-07-28T19:22:53.958Z,24.66
2018-07-28T19:25:22.519Z,24.69
2018-07-28T19:27:56.086Z,24.75
2018-07-28T19:30:24.386Z,24.78
2018-07-28T19:32:52.634Z,24.60
2018-07-28T19:35:20.926Z,24.45
2018-07-28T19:37:49.168Z,24.35
2018-07-28T19:40:17.421Z,24.54
2018-07-28T19:42:50.348Z,24.55
2018-07-28T19:45:18.626Z,24.46
2018-07-28T19:47:47.174Z,24.51
2018-07-28T19:50:15.515Z,24.62
2018-07-28T19:52:43.757Z,24.55
2018-07-28T19:55:12.074Z,24.53
2018-07-28T19:57:40.277Z,24.47
2018-07-28T20:00:08.550Z,24.37
2018-07-28T20:02:36.780Z,24.37
2018-07-28T20:05:05.722Z,24.30
2018-07-28T20:07:33.997Z,24.20
2018-07-28T20:10:02.223Z,24.14
2018-07-28T20:12:30.694Z,24.12
2018-07-28T20:14:59.054Z,24.05
2018-07-28T20:17:27.813Z,24.03
2018-07-28T20:19:56.083Z,24.00
2018-07-28T20:22:24.330Z,23.90
2018-07-28T20:24:52.594Z,23.85
2018-07-28T20:27:20.858Z,23.79
2018-07-28T20:29:49.150Z,23.51
2018-07-28T20:32:17.403Z,23.65
2018-07-28T20:34:45.611Z,23.71
2018-07-28T20:37:13.866Z,23.71
2018-07-28T20:39:42.221Z,23.69
2018-07-28T20:42:10.446Z,23.63
2018-07-28T20:44:38.695Z,23.60
2018-07-28T20:47:08.354Z,23.48
2018-07-28T20:49:36.646Z,23.49
2018-07-28T20:52:04.854Z,23.48
2018-07-28T20:54:33.058Z,23.51
2018-07-28T20:57:01.283Z,23.47
2018-07-28T20:59:29.619Z,23.47
2018-07-28T21:01:57.838Z,23.42
2018-07-28T21:04:26.062Z,23.32
2018-07-28T21:06:54.298Z,23.31
2018-07-28T21:09:22.503Z,23.28
2018-07-28T21:11:50.720Z,23.19
2018-07-28T21:14:18.922Z,22.99
2018-07-28T21:16:47.112Z,23.01
2018-07-28T21:19:15.310Z,22.88
2018-07-28T21:21:43.563Z,22.87
2018-07-28T21:24:11.728Z,22.94
2018-07-28T21:26:39.935Z,22.87
2018-07-28T21:29:08.175Z,22.97
2018-07-28T21:31:36.362Z,22.90
2018-07-28T21:34:04.599Z,22.83
2018-07-28T21:36:32.859Z,22.76
2018-07-28T21:39:01.806Z,22.68
2018-07-28T21:41:30.014Z,22.78
2018-07-28T21:43:58.234Z,22.91
2018-07-28T21:46:26.510Z,22.97
2018-07-28T21:48:54.730Z,22.98
2018-07-28T21:51:22.977Z,22.85
2018-07-28T21:53:51.234Z,22.83
2018-07-28T21:56:23.708Z,22.84
2018-07-28T21:58:52.611Z,22.79
2018-07-28T22:01:20.862Z,22.67
2018-07-28T22:03:49.154Z,22.60
2018-07-28T22:06:17.378Z,22.53
2018-07-28T22:08:45.612Z,22.55
2018-07-28T22:11:13.858Z,22.46
2018-07-28T22:13:42.103Z,22.36
2018-07-28T22:16:10.335Z,22.48
2018-07-28T22:18:38.564Z,22.52
2018-07-28T22:21:06.875Z,22.67
2018-07-28T22:23:35.075Z,22.80
2018-07-28T22:26:03.344Z,22.83
2018-07-28T22:28:31.560Z,22.81
2018-07-28T22:30:59.797Z,22.71
2018-07-28T22:33:28.075Z,22.70
2018-07-28T22:35:56.278Z,22.68
2018-07-28T22:38:24.502Z,22.63
2018-07-28T22:40:52.783Z,22.63
2018-07-28T22:43:20.990Z,22.62
2018-07-28T22:45:49.366Z,22.62
2018-07-28T22:48:17.578Z,22.59
2018-07-28T22:50:45.786Z,22.64
2018-07-28T22:53:14.002Z,22.73
2018-07-28T22:55:42.217Z,22.74
2018-07-28T22:58:10.440Z,22.67
2018-07-28T23:00:38.650Z,22.67
2018-07-28T23:03:06.882Z,22.63
2018-07-28T23:05:35.134Z,22.69
2018-07-28T23:08:03.398Z,22.59
2018-07-28T23:10:31.610Z,22.51
2018-07-28T23:12:59.882Z,22.47
2018-07-28T23:15:28.149Z,22.41
2018-07-28T23:17:56.358Z,22.23
2018-07-28T23:20:24.579Z,22.08
2018-07-28T23:22:52.837Z,22.08
2018-07-28T23:25:21.059Z,21.96
2018-07-28T23:27:49.295Z,21.86
2018-07-28T23:30:17.461Z,21.81
2018-07-28T23:32:45.696Z,21.75
2018-07-28T23:35:13.910Z,21.64
2018-07-28T23:37:42.134Z,21.57
2018-07-28T23:40:10.465Z,21.61
2018-07-28T23:42:38.690Z,21.56
2018-07-28T23:45:06.993Z,21.55
2018-07-28T23:47:35.270Z,21.59
2018-07-28T23:50:03.577Z,21.48
2018-07-28T23:54:59.061Z,21.35
2018-07-28T23:57:27.318Z,21.35
2018-07-28T23:59:55.541Z,21.27
